Time;durP1;ratioP1;P1;durP2;ratioP2;P2;SDS_P1;SDS_P2;PMS_P1;PMS_P2;Temp;Humidity;BMP_temperature;BMP_pressure;BME280_temperature;BME280_humidity;BME280_pressure;Samples;Min_cycle;Max_cycle;Signal;HPM_P1;HPM_P2
2023/01/12 00:01:22;;;;;;;;;1.00;0.00;;;;;21.32;46.85;101481.19;5076138;28;45376;-72
2023/01/12 00:03:47;;;;;;;;;0.00;0.00;;;;;21.31;46.88;101467.13;5076589;28;47469;-72
2023/01/12 00:06:14;;;;;;;;;0.67;0.67;;;;;21.32;46.80;101468.78;5058120;28;45355;-72
2023/01/12 00:08:39;;;;;;;;;0.00;0.00;;;;;21.31;46.53;101459.19;5076845;28;45416;-72
2023/01/12 00:11:04;;;;;;;;;0.00;0.00;;;;;21.31;46.85;101445.97;5076687;28;45527;-72
2023/01/12 00:13:31;;;;;;;;;0.00;0.00;;;;;21.25;46.66;101443.94;5076603;28;46054;-72
2023/01/12 00:18:45;;;;;;;;;0.00;0.00;;;;;21.24;46.81;101440.47;5076698;28;45369;-72
2023/01/12 00:21:11;;;;;;;;;1.33;1.00;;;;;21.29;46.81;101456.69;5076078;28;45417;-72
2023/01/12 00:23:38;;;;;;;;;0.67;0.67;;;;;21.25;46.45;101460.66;5076047;28;46320;-72
2023/01/12 00:26:06;;;;;;;;;1.00;0.33;;;;;21.30;46.17;101476.06;5076650;28;45336;-72
2023/01/12 00:28:31;;;;;;;;;0.00;0.00;;;;;21.20;46.62;101457.66;5076472;28;45261;-72
2023/01/12 00:31:01;;;;;;;;;0.00;0.00;;;;;21.27;46.35;101465.78;5076587;28;45230;-72
2023/01/12 00:33:26;;;;;;;;;0.67;0.67;;;;;21.29;46.31;101472.56;5076280;28;45344;-72
2023/01/12 00:35:51;;;;;;;;;1.33;1.00;;;;;21.29;46.34;101467.28;5075877;28;45495;-72
2023/01/12 00:38:16;;;;;;;;;3.00;1.00;;;;;21.25;46.83;101468.59;5076328;28;45329;-72
2023/01/12 00:40:42;;;;;;;;;0.33;0.33;;;;;21.28;46.30;101463.00;5076229;27;45444;-72
2023/01/12 00:45:51;;;;;;;;;0.00;0.00;;;;;21.27;46.19;101456.03;5076377;28;45696;-72
2023/01/12 00:48:17;;;;;;;;;0.33;0.33;;;;;21.27;46.57;101458.69;5076349;28;45379;-72
2023/01/12 00:50:42;;;;;;;;;1.00;0.00;;;;;21.27;46.68;101460.50;5075801;28;45505;-72
2023/01/12 00:53:07;;;;;;;;;0.00;0.00;;;;;21.22;46.73;101449.56;5075968;28;45377;-72
2023/01/12 00:55:33;;;;;;;;;0.00;0.00;;;;;21.25;46.79;101452.72;5075913;28;45544;-72
2023/01/12 00:57:58;;;;;;;;;1.00;0.00;;;;;21.26;46.29;101453.56;5076339;28;45420;-72
2023/01/12 01:00:24;;;;;;;;;0.00;0.00;;;;;21.26;46.82;101449.06;5075942;28;45486;-72
2023/01/12 01:02:49;;;;;;;;;3.00;1.33;;;;;21.25;46.71;101447.44;5075696;28;45339;-72
2023/01/12 01:05:16;;;;;;;;;1.00;0.00;;;;;21.25;46.80;101442.13;5075643;28;45406;-72
2023/01/12 01:07:42;;;;;;;;;0.00;0.00;;;;;21.15;46.76;101415.81;5076021;28;45422;-72
2023/01/12 01:10:09;;;;;;;;;1.00;0.00;;;;;21.26;46.79;101435.84;5075923;28;45384;-72
2023/01/12 01:12:34;;;;;;;;;2.00;0.00;;;;;21.26;46.39;101433.19;5075624;28;46989;-72
2023/01/12 01:14:59;;;;;;;;;0.67;0.67;;;;;21.27;46.75;101441.97;5075830;28;45223;-72
2023/01/12 01:17:25;;;;;;;;;2.00;0.00;;;;;21.25;46.24;101438.66;5076082;28;45246;-73
2023/01/12 01:19:50;;;;;;;;;2.00;0.00;;;;;21.24;46.68;101436.97;5075464;28;45306;-72
2023/01/12 01:22:15;;;;;;;;;1.67;0.00;;;;;21.28;46.69;101438.34;5075551;28;46072;-72
2023/01/12 01:24:41;;;;;;;;;1.00;0.33;;;;;21.27;46.56;101418.97;5075548;27;45396;-72
2023/01/12 01:27:06;;;;;;;;;2.00;0.00;;;;;21.28;46.19;101409.22;5075856;28;45363;-73
2023/01/12 01:29:31;;;;;;;;;0.67;0.67;;;;;21.27;46.70;101415.50;5075950;27;45314;-72
2023/01/12 01:31:57;;;;;;;;;1.00;1.00;;;;;21.17;46.33;101389.19;5075479;28;46023;-72
2023/01/12 01:34:24;;;;;;;;;0.67;0.67;;;;;21.27;46.25;101392.50;5075155;28;45332;-72
2023/01/12 01:36:50;;;;;;;;;0.00;0.00;;;;;21.28;46.73;101396.00;5075758;28;45285;-72
2023/01/12 01:39:15;;;;;;;;;0.00;0.00;;;;;21.23;46.26;101388.53;5075504;28;45277;-72
2023/01/12 01:41:40;;;;;;;;;1.33;0.00;;;;;21.28;46.50;101393.34;5075249;27;45443;-72
2023/01/12 01:44:28;;;;;;;;;0.00;0.00;;;;;21.27;46.80;101370.50;5057279;28;45458;-72
2023/01/12 01:46:59;;;;;;;;;0.00;0.00;;;;;21.27;46.56;101378.44;5075350;28;45659;-72
2023/01/12 01:49:40;;;;;;;;;0.33;0.33;;;;;21.27;46.45;101381.91;5075614;28;45476;-72
2023/01/12 01:52:05;;;;;;;;;0.00;0.00;;;;;21.27;46.12;101378.44;5075256;28;46381;-72
2023/01/12 01:54:40;;;;;;;;;1.67;0.00;;;;;21.26;46.55;101372.31;5075256;28;45363;-72
2023/01/12 01:57:08;;;;;;;;;3.33;0.00;;;;;21.25;46.29;101369.84;5055198;28;45356;-72
2023/01/12 01:59:38;;;;;;;;;0.33;0.33;;;;;21.21;46.47;101358.75;5054903;28;45480;-72
2023/01/12 02:02:03;;;;;;;;;1.00;0.00;;;;;21.17;46.57;101346.84;5054158;28;47218;-72
2023/01/12 02:04:30;;;;;;;;;1.00;1.00;;;;;21.17;46.63;101333.59;5055667;28;45447;-72
2023/01/12 02:06:56;;;;;;;;;0.00;0.00;;;;;21.25;46.19;101348.66;5058638;28;45450;-71
2023/01/12 02:09:26;;;;;;;;;0.33;0.33;;;;;21.23;46.25;101340.91;5058333;28;45388;-72
2023/01/12 02:17:49;;;;;;;;;0.00;0.00;;;;;21.23;46.63;101332.13;5057925;28;45258;-72
2023/01/12 02:20:30;;;;;;;;;0.00;0.00;;;;;21.22;46.79;101309.28;5058181;28;45208;-72
2023/01/12 02:23:38;;;;;;;;;0.00;0.00;;;;;21.22;46.53;101312.78;5057906;28;47060;-72
2023/01/12 02:26:15;;;;;;;;;1.00;1.00;;;;;21.21;46.20;101297.88;5034208;28;45517;-72
2023/01/12 02:29:17;;;;;;;;;3.00;0.00;;;;;21.22;46.21;101296.06;5035725;28;45442;-72
2023/01/12 02:31:51;;;;;;;;;0.00;0.00;;;;;21.22;46.34;101291.59;5035340;28;45427;-72
2023/01/12 02:34:29;;;;;;;;;0.00;0.00;;;;;21.21;46.32;101294.44;5035454;28;46160;-72
2023/01/12 02:37:12;;;;;;;;;0.00;0.00;;;;;21.20;46.46;101290.94;5035335;28;45556;-72
2023/01/12 02:39:43;;;;;;;;;0.00;0.00;;;;;21.20;46.56;101279.53;5035473;28;45423;-72
2023/01/12 02:42:43;;;;;;;;;0.00;0.00;;;;;21.19;46.18;101276.03;5035480;28;45599;-72
2023/01/12 02:45:31;;;;;;;;;0.00;0.00;;;;;21.14;46.20;101265.97;5034952;28;46532;-72
2023/01/12 02:48:04;;;;;;;;;0.00;0.00;;;;;21.22;46.66;101274.91;5035256;28;45581;-72
2023/01/12 02:50:41;;;;;;;;;0.33;0.00;;;;;21.22;46.60;101259.84;5035397;28;45411;-72
2023/01/12 02:53:32;;;;;;;;;2.00;2.00;;;;;21.22;46.29;101256.38;5035346;28;45376;-72
2023/01/12 02:56:05;;;;;;;;;0.00;0.00;;;;;21.21;46.25;101262.66;5029296;28;45598;-72
2023/01/12 02:58:34;;;;;;;;;0.67;0.00;;;;;21.23;46.38;101272.09;5035102;28;45443;-72
2023/01/12 03:01:03;;;;;;;;;0.33;0.33;;;;;21.23;46.11;101264.16;5034915;28;45422;-72
2023/01/12 03:03:28;;;;;;;;;1.00;0.00;;;;;21.24;46.09;101257.03;5062931;28;45657;-72
2023/01/12 03:05:56;;;;;;;;;1.00;0.00;;;;;21.25;46.52;101275.41;5077568;27;45938;-72
2023/01/12 03:08:27;;;;;;;;;1.00;0.67;;;;;21.21;46.24;101252.88;5077528;28;45353;-72
2023/01/12 03:11:05;;;;;;;;;0.00;0.00;;;;;21.18;46.68;101237.38;5077693;28;45311;-72
2023/01/12 03:13:35;;;;;;;;;0.00;0.00;;;;;21.19;45.96;101241.66;5077643;27;45360;-72
2023/01/12 03:16:03;;;;;;;;;2.67;0.00;;;;;21.22;46.47;101249.25;5075765;28;45292;-72
2023/01/12 03:18:48;;;;;;;;;0.00;0.00;;;;;21.24;46.24;101255.22;5077424;28;45596;-72
2023/01/12 03:21:29;;;;;;;;;0.00;0.00;;;;;21.25;46.26;101258.69;5077506;27;45332;-72
2023/01/12 03:23:59;;;;;;;;;0.00;0.00;;;;;21.17;46.37;101254.22;5077315;28;45617;-72
2023/01/12 03:26:28;;;;;;;;;2.00;0.67;;;;;21.24;46.44;101249.91;5077203;28;46273;-72
2023/01/12 03:29:02;;;;;;;;;0.00;0.00;;;;;21.18;46.13;101251.41;5077089;28;45454;-72
2023/01/12 03:31:28;;;;;;;;;0.00;0.00;;;;;21.23;46.49;101250.09;5077376;28;45323;-72
2023/01/12 03:33:54;;;;;;;;;1.00;1.00;;;;;21.23;45.97;101245.63;5059237;28;46024;-72
2023/01/12 03:36:28;;;;;;;;;0.33;0.33;;;;;21.24;46.44;101244.63;5077016;28;46384;-72
2023/01/12 03:39:11;;;;;;;;;0.00;0.00;;;;;21.23;46.59;101240.34;5077063;28;45290;-72
2023/01/12 03:41:53;;;;;;;;;1.67;0.00;;;;;21.22;46.08;101237.84;5077289;27;45351;-72
2023/01/12 03:44:23;;;;;;;;;2.00;0.00;;;;;21.17;46.33;101228.59;5076784;28;45438;-72
2023/01/12 03:47:04;;;;;;;;;1.33;0.00;;;;;21.21;46.27;101239.66;5077119;27;45430;-72
2023/01/12 03:49:36;;;;;;;;;0.67;0.00;;;;;21.22;46.25;101248.44;5076832;28;45325;-73
2023/01/12 03:52:06;;;;;;;;;0.00;0.00;;;;;21.17;46.37;101247.13;5077106;28;45358;-72
2023/01/12 03:54:35;;;;;;;;;1.00;0.00;;;;;21.21;45.93;101244.94;5077112;28;45413;-72
2023/01/12 03:57:02;;;;;;;;;0.00;0.00;;;;;21.22;46.10;101232.56;5056045;28;46732;-73
2023/01/12 03:59:27;;;;;;;;;0.00;0.00;;;;;21.11;46.27;101231.06;5056100;28;45439;-72
2023/01/12 04:01:53;;;;;;;;;0.00;0.00;;;;;21.21;46.21;101229.06;5055557;28;45459;-72
2023/01/12 04:04:19;;;;;;;;;1.00;0.00;;;;;21.21;46.24;101234.38;5056662;28;45458;-72
2023/01/12 04:06:44;;;;;;;;;1.33;0.00;;;;;21.21;46.05;101234.38;5056325;28;47019;-72
2023/01/12 04:09:09;;;;;;;;;2.00;0.67;;;;;21.21;46.64;101234.38;5056514;28;45560;-72
2023/01/12 04:14:32;;;;;;;;;0.00;0.00;;;;;21.20;46.22;101239.84;4994325;28;45414;-72
2023/01/12 04:16:57;;;;;;;;;0.00;0.00;;;;;21.21;46.40;101217.69;4993859;28;51107;-72
2023/01/12 04:19:23;;;;;;;;;0.00;0.00;;;;;21.19;46.33;101228.41;4994247;28;45386;-72
2023/01/12 04:24:32;;;;;;;;;0.33;0.33;;;;;21.18;46.07;101214.34;4994224;28;45382;-72
2023/01/12 04:26:57;;;;;;;;;0.00;0.00;;;;;21.20;46.29;101226.59;4993363;28;45420;-72
2023/01/12 04:29:22;;;;;;;;;0.00;0.00;;;;;21.21;45.95;101209.75;4993432;28;45410;-72
2023/01/12 04:31:48;;;;;;;;;0.00;0.00;;;;;21.19;46.15;101212.53;4994150;28;45392;-72
2023/01/12 04:34:13;;;;;;;;;0.00;0.00;;;;;21.21;46.20;101199.97;4994193;28;45265;-72
2023/01/12 04:36:41;;;;;;;;;0.00;0.00;;;;;21.18;46.67;101203.78;4993931;28;46487;-72
2023/01/12 04:39:07;;;;;;;;;1.00;0.00;;;;;21.22;45.98;101200.81;4993908;28;45315;-72
2023/01/12 04:41:32;;;;;;;;;0.67;0.00;;;;;21.24;46.54;101204.09;4993559;28;45288;-72
2023/01/12 04:43:57;;;;;;;;;0.00;0.00;;;;;21.24;46.04;101206.75;4993986;28;45297;-73
2023/01/12 04:46:23;;;;;;;;;0.00;0.00;;;;;21.21;46.05;101183.28;4993742;28;46250;-72
2023/01/12 04:48:48;;;;;;;;;0.00;0.00;;;;;21.14;46.12;101176.00;4993888;28;45379;-72
2023/01/12 04:51:13;;;;;;;;;0.00;0.00;;;;;21.24;45.84;101189.06;5072024;28;45403;-72
2023/01/12 04:53:39;;;;;;;;;0.67;0.67;;;;;21.23;46.46;101198.00;5058019;28;45380;-72
2023/01/12 04:56:05;;;;;;;;;2.00;0.00;;;;;21.24;46.16;101201.44;5075446;28;45372;-72
2023/01/12 04:58:31;;;;;;;;;2.00;1.00;;;;;21.13;46.17;101174.34;5076226;28;45399;-72
2023/01/12 05:00:56;;;;;;;;;0.00;0.00;;;;;21.23;45.96;101179.47;5076028;28;45654;-72
2023/01/12 05:03:22;;;;;;;;;0.00;0.00;;;;;21.13;46.22;101165.59;5075885;28;45424;-72
2023/01/12 05:05:48;;;;;;;;;1.67;1.67;;;;;21.23;46.27;101174.19;5075793;28;46158;-72
2023/01/12 05:10:59;;;;;;;;;0.00;0.00;;;;;21.23;45.88;101183.94;5075676;28;45317;-72
2023/01/12 05:13:28;;;;;;;;;0.00;0.00;;;;;21.23;46.05;101189.22;5075794;28;45364;-72
2023/01/12 05:15:53;;;;;;;;;0.00;0.00;;;;;21.21;45.92;101173.50;5075870;28;45363;-73
2023/01/12 05:18:18;;;;;;;;;0.00;0.00;;;;;21.22;46.36;101163.75;5075906;27;45521;-72
2023/01/12 05:20:44;;;;;;;;;1.67;0.00;;;;;21.21;46.25;101164.75;5075858;28;46062;-72
2023/01/12 05:23:10;;;;;;;;;0.00;0.00;;;;;21.16;46.49;101149.38;5075810;28;45368;-72
2023/01/12 05:25:35;;;;;;;;;0.00;0.00;;;;;21.22;46.05;101155.81;5075203;28;46874;-72
2023/01/12 05:28:00;;;;;;;;;0.00;0.00;;;;;21.21;45.76;101146.25;5057541;28;45422;-72
2023/01/12 05:30:27;;;;;;;;;0.00;0.00;;;;;21.21;46.15;101156.81;5057536;28;45472;-72
2023/01/12 05:32:52;;;;;;;;;1.00;0.00;;;;;21.21;45.93;101146.25;5075687;28;45405;-72
2023/01/12 05:35:17;;;;;;;;;0.33;0.33;;;;;21.18;46.08;101145.56;5075353;28;46201;-72
2023/01/12 05:37:43;;;;;;;;;2.00;0.67;;;;;21.21;46.00;101152.34;5075431;27;45377;-72
2023/01/12 05:40:09;;;;;;;;;0.00;0.00;;;;;21.13;46.18;101142.59;5077017;27;45273;-73
2023/01/12 05:45:19;;;;;;;;;0.00;0.00;;;;;21.19;45.84;101149.03;5078890;28;45660;-72
2023/01/12 05:47:44;;;;;;;;;2.00;0.00;;;;;21.21;46.14;101156.81;5078798;28;45257;-72
2023/01/12 05:50:10;;;;;;;;;1.33;0.33;;;;;21.15;46.31;101147.72;5079006;28;45221;-72
2023/01/12 05:52:35;;;;;;;;;2.33;0.00;;;;;21.20;46.47;101153.34;5079037;27;45435;-72
2023/01/12 05:55:01;;;;;;;;;0.00;0.00;;;;;21.20;46.05;101141.94;5078304;27;45286;-72
2023/01/12 05:57:29;;;;;;;;;0.00;0.00;;;;;21.11;46.13;101146.38;5078739;27;45238;-72
2023/01/12 05:59:54;;;;;;;;;0.00;0.00;;;;;21.20;46.05;101160.44;5078893;28;45411;-72
2023/01/12 06:02:20;;;;;;;;;1.00;0.67;;;;;21.21;46.30;101162.13;5078660;27;45297;-72
2023/01/12 06:04:45;;;;;;;;;2.00;0.00;;;;;21.14;45.88;101146.06;5078743;27;46996;-72
2023/01/12 06:07:15;;;;;;;;;1.00;1.00;;;;;21.21;46.07;101170.06;5078711;28;45405;-72
2023/01/12 06:09:41;;;;;;;;;0.00;0.00;;;;;21.22;46.02;101155.81;5078506;28;45442;-72
2023/01/12 06:14:53;;;;;;;;;0.00;0.00;;;;;21.22;46.20;101142.59;5078406;27;45692;-72
2023/01/12 06:17:18;;;;;;;;;0.00;0.00;;;;;21.22;45.92;101151.34;5078424;28;45471;-72
2023/01/12 06:19:44;;;;;;;;;0.00;0.00;;;;;21.22;45.90;101148.72;5078505;28;45385;-72
2023/01/12 06:22:09;;;;;;;;;2.00;0.00;;;;;21.23;46.13;101149.53;5078515;28;45361;-72
2023/01/12 06:24:34;;;;;;;;;0.67;0.00;;;;;21.24;46.26;101146.72;5077829;27;47119;-72
2023/01/12 06:27:00;;;;;;;;;0.33;0.33;;;;;21.24;46.16;101146.72;5078351;28;45433;-72
2023/01/12 06:29:25;;;;;;;;;0.67;0.00;;;;;21.26;46.18;101146.56;5078423;28;45369;-72
2023/01/12 06:31:51;;;;;;;;;0.00;0.00;;;;;21.26;45.93;101157.94;5078402;28;45382;-72
2023/01/12 06:34:16;;;;;;;;;0.00;0.00;;;;;21.26;46.19;101162.44;5078097;28;46119;-72
2023/01/12 06:36:42;;;;;;;;;0.00;0.00;;;;;21.24;46.06;101159.94;5078129;27;45273;-73
2023/01/12 06:39:08;;;;;;;;;0.00;0.00;;;;;21.25;46.22;101166.91;5077845;27;45309;-73
2023/01/12 06:44:17;;;;;;;;;0.00;0.00;;;;;21.25;45.97;101166.06;5078194;28;45846;-73
2023/01/12 06:46:43;;;;;;;;;1.00;0.00;;;;;21.22;46.02;101166.41;5077929;28;45364;-72
2023/01/12 06:49:08;;;;;;;;;0.00;0.00;;;;;21.23;46.18;101163.59;5077325;27;45337;-73
2023/01/12 06:51:34;;;;;;;;;2.00;0.00;;;;;21.18;45.92;101150.03;5077651;28;45388;-75
2023/01/12 06:54:00;;;;;;;;;0.00;0.00;;;;;21.22;46.18;101155.81;5077753;28;46981;-73
2023/01/12 06:56:25;;;;;;;;;0.00;0.00;;;;;21.18;46.24;101150.84;5078225;28;45372;-74
2023/01/12 06:58:51;;;;;;;;;1.00;0.00;;;;;21.22;46.34;101163.75;5059157;28;45526;-72
2023/01/12 07:01:16;;;;;;;;;1.00;0.00;;;;;21.14;46.12;101157.47;5077479;27;45334;-70
2023/01/12 07:03:41;;;;;;;;;2.00;0.00;;;;;21.22;46.12;101159.28;5077724;28;45277;-71
2023/01/12 07:06:07;;;;;;;;;0.33;0.33;;;;;21.23;46.23;101152.19;5077235;28;45345;-71
2023/01/12 07:08:32;;;;;;;;;0.00;0.00;;;;;21.25;46.21;101161.59;5059704;28;45166;-71
2023/01/12 07:11:02;;;;;;;;;0.33;0.33;;;;;21.22;46.73;101161.09;5077671;28;45392;-71
2023/01/12 07:13:28;;;;;;;;;0.33;0.00;;;;;21.25;46.65;101161.59;5077402;28;46945;-74
2023/01/12 07:15:57;;;;;;;;;3.00;0.00;;;;;21.27;46.90;101175.50;5077104;28;45416;-75
2023/01/12 07:18:22;;;;;;;;;1.00;0.67;;;;;21.28;46.57;101165.75;5077393;28;45313;-70
2023/01/12 07:20:47;;;;;;;;;0.00;0.00;;;;;21.27;46.62;101175.50;5076930;28;45283;-72
2023/01/12 07:23:13;;;;;;;;;2.00;1.00;;;;;21.28;46.88;101171.03;5077250;28;45347;-72
2023/01/12 07:25:38;;;;;;;;;0.00;0.00;;;;;21.27;46.73;101178.16;5058562;28;45366;-71
2023/01/12 07:28:04;;;;;;;;;0.00;0.00;;;;;20.99;47.07;101135.31;5077552;28;45321;-72
2023/01/12 07:30:29;;;;;;;;;0.00;0.00;;;;;21.17;46.94;101156.31;5077402;28;45436;-72
2023/01/12 07:32:54;;;;;;;;;0.00;0.00;;;;;21.27;46.98;101180.78;5077115;28;46177;-72
2023/01/12 07:35:20;;;;;;;;;0.00;0.00;;;;;21.28;46.94;101173.69;5077037;28;45328;-72
2023/01/12 07:37:47;;;;;;;;;0.00;0.00;;;;;21.28;47.00;101173.69;5077117;28;45336;-72
2023/01/12 07:40:13;;;;;;;;;0.00;0.00;;;;;21.28;46.89;101178.97;5077184;27;45286;-72
2023/01/12 07:42:38;;;;;;;;;1.33;1.00;;;;;21.21;46.66;101165.56;5077005;28;46181;-72
2023/01/12 07:45:04;;;;;;;;;2.00;0.00;;;;;21.28;46.80;101163.94;5077120;27;45354;-72
2023/01/12 07:47:29;;;;;;;;;1.00;0.00;;;;;21.17;47.11;101158.97;5077445;28;45398;-72
2023/01/12 07:49:55;;;;;;;;;0.00;0.00;;;;;21.29;46.88;101177.97;5076838;28;45240;-72
2023/01/12 07:52:20;;;;;;;;;0.00;0.00;;;;;21.27;46.87;101180.78;5076927;28;45393;-72
2023/01/12 07:54:45;;;;;;;;;0.00;0.00;;;;;21.20;46.74;101166.56;5076807;28;45265;-72
2023/01/12 07:57:11;;;;;;;;;0.00;0.00;;;;;21.29;46.84;101183.25;5077035;28;45221;-72
2023/01/12 07:59:36;;;;;;;;;0.00;0.00;;;;;21.29;47.05;101186.72;5077038;28;45391;-72
2023/01/12 08:02:02;;;;;;;;;0.00;0.00;;;;;21.29;47.15;101183.25;5075659;28;46256;-72
2023/01/12 08:04:28;;;;;;;;;1.00;0.00;;;;;21.29;46.97;101178.78;5075129;28;45755;-72
2023/01/12 08:06:53;;;;;;;;;0.00;0.00;;;;;21.27;46.86;101164.91;5076986;28;45321;-72
2023/01/12 08:09:18;;;;;;;;;0.00;0.00;;;;;21.30;47.01;101166.41;5076846;28;45288;-72
2023/01/12 08:11:44;;;;;;;;;2.00;0.00;;;;;21.30;46.83;101169.03;5076582;28;45344;-72
2023/01/12 08:14:20;;;;;;;;;2.00;0.00;;;;;21.31;46.56;101156.66;5076643;28;45431;-72
2023/01/12 08:16:48;;;;;;;;;0.00;0.00;;;;;21.30;46.56;101174.34;5076718;28;45363;-72
2023/01/12 08:19:19;;;;;;;;;1.00;0.00;;;;;21.30;46.61;101171.69;5076200;28;45527;-72
2023/01/12 08:21:49;;;;;;;;;0.00;0.00;;;;;21.29;46.52;101170.84;5076204;28;46327;-72
2023/01/12 08:24:21;;;;;;;;;0.33;0.00;;;;;21.31;46.92;101169.88;5076686;28;45376;-72
2023/01/12 08:26:50;;;;;;;;;0.00;0.00;;;;;21.25;47.08;101158.97;5076451;28;45326;-71
2023/01/12 08:29:22;;;;;;;;;0.00;0.00;;;;;21.30;47.00;101174.34;5076525;28;45294;-71
2023/01/12 08:31:47;;;;;;;;;0.00;0.00;;;;;21.29;46.85;101173.50;5076052;28;47068;-72
2023/01/12 08:34:13;;;;;;;;;0.00;0.00;;;;;21.30;46.69;101174.34;5075867;27;45431;-72
2023/01/12 08:36:41;;;;;;;;;0.67;0.67;;;;;21.29;46.93;101160.28;5076526;28;45485;-71
2023/01/12 08:39:07;;;;;;;;;0.00;0.00;;;;;21.31;46.53;101167.22;5076333;28;45234;-72
2023/01/12 08:41:32;;;;;;;;;1.33;0.00;;;;;21.28;46.83;101171.03;5075937;27;46045;-72
2023/01/12 08:44:07;;;;;;;;;0.00;0.00;;;;;21.31;46.55;101159.28;5076416;27;45395;-72
2023/01/12 08:46:38;;;;;;;;;0.33;0.00;;;;;21.31;46.99;101156.66;5076485;27;45413;-72
2023/01/12 08:49:08;;;;;;;;;1.33;0.00;;;;;21.30;46.61;101158.47;5075760;27;45474;-72
2023/01/12 08:51:33;;;;;;;;;0.00;0.00;;;;;21.20;46.75;101142.75;5057968;28;46725;-72
2023/01/12 08:54:01;;;;;;;;;0.00;0.00;;;;;21.28;46.87;101149.88;5075325;28;45427;-72
2023/01/12 08:56:26;;;;;;;;;1.00;0.00;;;;;21.28;46.89;101148.06;5075978;27;45316;-72
2023/01/12 08:58:51;;;;;;;;;0.00;0.00;;;;;21.28;46.68;101150.69;5076173;28;45325;-72
2023/01/12 09:01:18;;;;;;;;;0.00;0.00;;;;;21.26;46.56;101138.63;5074299;28;46980;-71
2023/01/12 09:03:44;;;;;;;;;0.00;0.00;;;;;21.26;46.62;101142.06;5075385;28;45477;-72
2023/01/12 09:06:21;;;;;;;;;0.00;0.00;;;;;21.28;46.70;101147.22;5076190;28;45416;-72
2023/01/12 09:08:46;;;;;;;;;1.00;0.00;;;;;21.24;46.93;101143.22;5076042;28;45938;-72
2023/01/12 09:11:14;;;;;;;;;0.33;0.00;;;;;21.29;46.68;101138.25;5075681;28;46916;-72
2023/01/12 09:13:40;;;;;;;;;0.00;0.00;;;;;21.26;46.84;101141.28;5075805;28;45368;-72
2023/01/12 09:16:11;;;;;;;;;0.00;0.00;;;;;21.26;47.06;101143.91;5079078;27;45436;-72
2023/01/12 09:18:36;;;;;;;;;0.67;0.00;;;;;21.12;46.60;101118.94;5079284;27;45341;-72
2023/01/12 09:21:07;;;;;;;;;0.00;0.00;;;;;21.27;46.63;101149.03;5079141;28;45983;-71
2023/01/12 09:23:33;;;;;;;;;0.00;0.00;;;;;21.25;46.63;101153.66;5079308;28;45437;-72
2023/01/12 09:26:03;;;;;;;;;0.00;0.00;;;;;21.24;47.01;101153.81;5079287;28;45403;-72
2023/01/12 09:28:30;;;;;;;;;1.00;0.00;;;;;21.27;46.73;101156.97;5079381;27;45309;-72
2023/01/12 09:30:59;;;;;;;;;0.00;0.00;;;;;21.24;46.90;101156.47;5078813;28;46468;-71
2023/01/12 09:33:24;;;;;;;;;0.00;0.00;;;;;21.27;46.69;101156.97;5078992;27;45264;-72
2023/01/12 09:35:50;;;;;;;;;0.00;0.00;;;;;21.23;46.73;101158.31;5079207;28;45253;-72
2023/01/12 09:38:16;;;;;;;;;0.33;0.00;;;;;21.28;46.68;101158.63;5078804;28;46538;-72
2023/01/12 09:40:43;;;;;;;;;0.00;0.00;;;;;21.22;46.58;101156.66;5078960;27;46454;-72
2023/01/12 09:48:41;;;;;;;;;0.67;0.00;;;;;21.29;46.87;101170.84;5079011;27;45393;-72
2023/01/12 09:51:21;;;;;;;;;0.33;0.33;;;;;21.31;46.69;101172.53;5078641;28;46125;-72
2023/01/12 09:53:46;;;;;;;;;0.00;0.00;;;;;21.29;46.97;101160.28;5078867;27;45317;-72
2023/01/12 09:56:33;;;;;;;;;0.00;0.00;;;;;21.30;46.56;101171.69;5078833;28;45231;-72
2023/01/12 09:59:24;;;;;;;;;0.33;0.33;;;;;21.31;46.63;101169.88;5079057;28;45624;-72
2023/01/12 10:01:52;;;;;;;;;0.00;0.00;;;;;21.29;46.75;101172.66;5077967;28;45427;-72
2023/01/12 10:04:17;;;;;;;;;0.67;0.00;;;;;21.29;46.93;101170.84;5078648;28;45451;-72
2023/01/12 10:06:43;;;;;;;;;2.00;0.00;;;;;21.20;46.82;101166.56;5078837;28;45397;-72
2023/01/12 10:09:17;;;;;;;;;0.00;0.00;;;;;21.29;46.93;101185.91;5079003;28;45359;-71
2023/01/12 10:11:46;;;;;;;;;0.00;0.00;;;;;21.29;46.65;101191.19;5078723;28;46330;-71
2023/01/12 10:14:30;;;;;;;;;0.00;0.00;;;;;21.30;46.60;101184.91;5078357;28;45451;-71
2023/01/12 10:17:17;;;;;;;;;0.33;0.33;;;;;21.28;46.86;101184.25;5078601;28;45440;-72
2023/01/12 10:20:20;;;;;;;;;0.00;0.00;;;;;21.28;46.64;101185.09;5078442;28;45481;-72
2023/01/12 10:22:57;;;;;;;;;0.67;0.67;;;;;21.24;46.67;101180.28;4995942;28;45536;-72
2023/01/12 10:25:28;;;;;;;;;0.00;0.00;;;;;21.29;46.84;101183.25;4995231;28;45421;-72
2023/01/12 10:27:56;;;;;;;;;1.33;0.00;;;;;21.27;46.90;101180.78;4996150;28;45531;-72
2023/01/12 10:30:27;;;;;;;;;0.00;0.00;;;;;21.27;46.64;101177.31;4995567;28;45386;-72
2023/01/12 10:32:53;;;;;;;;;0.00;0.00;;;;;21.28;47.09;101181.63;4995731;28;46219;-72
2023/01/12 10:35:23;;;;;;;;;0.67;0.67;;;;;21.27;46.67;101185.25;4995931;28;45499;-72
2023/01/12 10:37:54;;;;;;;;;0.00;0.00;;;;;21.26;46.62;101176.47;4995823;28;45409;-71
2023/01/12 10:40:28;;;;;;;;;0.00;0.00;;;;;21.27;46.46;101164.06;4995616;28;45479;-72
2023/01/12 10:43:22;;;;;;;;;1.00;0.00;;;;;21.27;46.97;101166.72;4995561;28;46212;-72
2023/01/12 10:45:53;;;;;;;;;1.00;0.00;;;;;21.28;46.61;101166.56;4995542;28;45493;-72
2023/01/12 10:48:21;;;;;;;;;0.00;0.00;;;;;21.28;46.55;101168.38;4995858;28;45401;-72
2023/01/12 10:51:06;;;;;;;;;0.00;0.00;;;;;21.28;46.85;101169.22;4995596;28;45363;-72
2023/01/12 10:53:44;;;;;;;;;0.00;0.00;;;;;21.29;46.76;101154.16;4995534;28;46195;-72
2023/01/12 10:56:18;;;;;;;;;1.00;0.00;;;;;21.28;47.08;101149.88;5010607;28;45402;-72
2023/01/12 10:58:51;;;;;;;;;1.33;0.00;;;;;21.29;47.04;101139.09;5057448;28;45396;-72
2023/01/12 11:01:16;;;;;;;;;0.00;0.00;;;;;21.30;46.97;101145.22;5057097;28;45393;-71
2023/01/12 11:03:42;;;;;;;;;0.00;0.00;;;;;21.29;46.58;101136.44;5057364;28;45478;-72
2023/01/12 11:06:24;;;;;;;;;0.00;0.00;;;;;21.31;46.69;101132.81;5057337;28;45322;-72
2023/01/12 11:08:50;;;;;;;;;0.00;0.00;;;;;21.29;46.55;101133.81;5057799;28;45479;-72
2023/01/12 11:11:24;;;;;;;;;0.00;0.00;;;;;21.31;46.71;101138.13;5057178;28;45432;-72
2023/01/12 11:13:56;;;;;;;;;0.00;0.00;;;;;21.33;46.55;101141.41;5056863;28;46219;-72
2023/01/12 11:16:29;;;;;;;;;1.00;0.00;;;;;21.30;46.52;101113.47;5057030;28;45357;-72
2023/01/12 11:19:03;;;;;;;;;0.33;0.00;;;;;21.32;46.70;101137.09;5057410;28;45403;-72
2023/01/12 11:21:35;;;;;;;;;0.00;0.00;;;;;21.32;46.97;101130.00;5057188;28;45579;-72
2023/01/12 11:24:13;;;;;;;;;0.00;0.00;;;;;21.27;46.47;101132.31;5039045;28;46240;-72
2023/01/12 11:26:55;;;;;;;;;0.00;0.00;;;;;21.27;46.59;101111.16;5057008;28;45431;-71
2023/01/12 11:29:42;;;;;;;;;0.00;0.00;;;;;21.33;46.80;101128.19;5057314;28;45623;-72
2023/01/12 11:32:27;;;;;;;;;0.00;0.00;;;;;21.32;46.40;101119.41;5056866;28;45454;-72
2023/01/12 11:35:37;;;;;;;;;0.00;0.00;;;;;21.32;46.93;101116.75;5056844;28;45317;-72
2023/01/12 11:38:16;;;;;;;;;1.00;0.00;;;;;21.32;46.91;101122.06;5055838;28;45390;-72
2023/01/12 11:40:43;;;;;;;;;0.00;0.00;;;;;21.33;46.50;101121.06;5067252;27;46193;-71
2023/01/12 11:43:48;;;;;;;;;0.00;0.00;;;;;21.34;46.68;101103.38;5076712;28;45291;-72
2023/01/12 11:46:19;;;;;;;;;0.00;0.00;;;;;21.33;46.37;101102.53;5077025;27;47022;-72
2023/01/12 11:49:11;;;;;;;;;1.00;0.00;;;;;21.33;46.45;101105.19;5077108;28;45390;-71
2023/01/12 11:51:38;;;;;;;;;0.00;0.00;;;;;21.33;46.39;101105.19;5077027;28;45393;-72
2023/01/12 11:54:10;;;;;;;;;0.00;0.00;;;;;21.33;46.51;101105.19;5077002;28;45557;-72
2023/01/12 11:57:00;;;;;;;;;0.00;0.00;;;;;21.33;46.79;101099.91;5076258;28;46172;-72
2023/01/12 11:59:34;;;;;;;;;0.00;0.00;;;;;21.34;46.79;101083.00;5076879;28;45354;-72
2023/01/12 12:02:32;;;;;;;;;0.00;0.00;;;;;21.34;46.75;101084.84;5076712;28;45365;-71
2023/01/12 12:05:19;;;;;;;;;0.00;0.00;;;;;21.34;46.61;101082.19;5076966;28;45295;-71
2023/01/12 12:07:50;;;;;;;;;0.00;0.00;;;;;21.34;46.81;101066.31;5076881;28;47246;-72
2023/01/12 12:10:30;;;;;;;;;1.67;1.00;;;;;21.32;46.55;101068.28;5076401;28;45391;-72